Airfield :
LOGIN :

Register | Disclaimer

   EN    FR    IT 

 










Legend :    VFR   Marginal VFR   IFR   Intensive IFR   Very Intensive IFR
Visi :
Ceiling :
>= 8 km
>= 3000ft
5 to 8 km
1000 to 3000 ft
1500m to 5 km
500 to 1000 ft
800 to 1500m
200 to 500 ft
< 800m
< 200 ft
Symbols :   Thunderstorms  Fog  Heavy snow  Heavy precipitations  Wind > 20 kt
SIGMETs :     Misc.  Thunderstorms  Icing  Turbulence  Mountain Waves  Volcanic Ashes






- Airport Elevation : 36 ft
- IATA code : LTQ


LFAT - Le Touquet

CURRENT METAR :
  • 070930Z AUTO 30005KT 240V020 9999 FEW023 10/04 Q1017 NOSIG

EXPIRED METARs :
  • 070900Z AUTO 34007KT 310V020 CAVOK 10/03 Q1017 NOSIG
  • 070830Z AUTO 33008KT 260V360 CAVOK 09/03 Q1017 NOSIG
  • 070800Z AUTO 34009KT CAVOK 09/03 Q1016 NOSIG
  • 070730Z AUTO 33011KT CAVOK 09/03 Q1016 BECMG 25007KT
  • 070700Z AUTO 33012KT 9999 FEW023 09/03 Q1015 BECMG 25007KT

TAF TAF LFAT
Valid from the 07 at 09:00 until the 07 at 18:00 UTC


070800Z 0709/0718 32012KT CAVOK
BECMG 0709/0711 25007KT
ATIS : +33 3 21 06 62 84



MET'MAP, your aeronautical weather chart ! - Copyright ORBIFLY December 2007 - Disclaimer

ORBIFLY MET'MAP TEAM :

Programming & Development : Alexandra Zaïnal
Concept & original design : Baudouin d'Aumeries
Assistance for programming : Marc-Olivier Méhu
Technical & hardware support : Manuel Goepfert

Contact : metmap@orbifly.com




SOURCES & CREDITS :

   NOAA